sensor_id;sensor_type;location;lat;lon;timestamp;temperature;humidity
24164;DHT22;12319;49.204;8.116;2023-04-24T00:01:40;11.80;88.00
24164;DHT22;12319;49.204;8.116;2023-04-24T00:04:06;11.80;87.80
24164;DHT22;12319;49.204;8.116;2023-04-24T00:06:32;11.80;87.80
24164;DHT22;12319;49.204;8.116;2023-04-24T00:09:01;11.90;88.60
24164;DHT22;12319;49.204;8.116;2023-04-24T00:11:28;11.80;88.60
24164;DHT22;12319;49.204;8.116;2023-04-24T00:13:54;11.80;89.00
24164;DHT22;12319;49.204;8.116;2023-04-24T00:16:19;11.80;88.90
24164;DHT22;12319;49.204;8.116;2023-04-24T00:18:45;11.80;89.10
24164;DHT22;12319;49.204;8.116;2023-04-24T00:21:13;11.90;88.90
24164;DHT22;12319;49.204;8.116;2023-04-24T00:23:39;11.80;88.90
24164;DHT22;12319;49.204;8.116;2023-04-24T00:26:04;11.80;88.90
24164;DHT22;12319;49.204;8.116;2023-04-24T00:28:30;11.80;88.90
24164;DHT22;12319;49.204;8.116;2023-04-24T00:30:56;11.80;88.90
24164;DHT22;12319;49.204;8.116;2023-04-24T00:33:22;11.90;89.70
24164;DHT22;12319;49.204;8.116;2023-04-24T00:35:48;11.90;89.80
24164;DHT22;12319;49.204;8.116;2023-04-24T00:38:13;11.90;90.10
24164;DHT22;12319;49.204;8.116;2023-04-24T00:40:39;11.80;89.80
24164;DHT22;12319;49.204;8.116;2023-04-24T00:43:04;11.80;90.30
24164;DHT22;12319;49.204;8.116;2023-04-24T00:45:30;11.80;90.10
24164;DHT22;12319;49.204;8.116;2023-04-24T00:47:57;11.80;90.20
24164;DHT22;12319;49.204;8.116;2023-04-24T00:50:23;11.80;90.50
24164;DHT22;12319;49.204;8.116;2023-04-24T00:52:49;11.70;90.40
24164;DHT22;12319;49.204;8.116;2023-04-24T00:55:15;11.70;90.60
24164;DHT22;12319;49.204;8.116;2023-04-24T00:57:41;11.60;90.70
24164;DHT22;12319;49.204;8.116;2023-04-24T01:00:07;11.80;91.00
24164;DHT22;12319;49.204;8.116;2023-04-24T01:02:36;11.60;91.00
24164;DHT22;12319;49.204;8.116;2023-04-24T01:05:06;11.60;91.40
24164;DHT22;12319;49.204;8.116;2023-04-24T01:07:32;11.60;91.20
24164;DHT22;12319;49.204;8.116;2023-04-24T01:09:58;11.60;91.40
24164;DHT22;12319;49.204;8.116;2023-04-24T01:12:24;11.60;91.30
24164;DHT22;12319;49.204;8.116;2023-04-24T01:14:49;11.60;91.90
24164;DHT22;12319;49.204;8.116;2023-04-24T01:17:15;11.60;92.10
24164;DHT22;12319;49.204;8.116;2023-04-24T01:19:40;11.60;92.30
24164;DHT22;12319;49.204;8.116;2023-04-24T01:22:15;11.60;92.50
24164;DHT22;12319;49.204;8.116;2023-04-24T01:24:42;11.60;92.50
24164;DHT22;12319;49.204;8.116;2023-04-24T01:27:09;11.60;92.40
24164;DHT22;12319;49.204;8.116;2023-04-24T01:29:35;11.60;92.40
24164;DHT22;12319;49.204;8.116;2023-04-24T01:32:02;11.70;92.70
24164;DHT22;12319;49.204;8.116;2023-04-24T01:34:28;11.70;92.70
24164;DHT22;12319;49.204;8.116;2023-04-24T01:36:54;11.70;92.70
24164;DHT22;12319;49.204;8.116;2023-04-24T01:39:21;11.80;93.00
24164;DHT22;12319;49.204;8.116;2023-04-24T01:41:48;11.70;92.90
24164;DHT22;12319;49.204;8.116;2023-04-24T01:44:15;11.70;93.20
24164;DHT22;12319;49.204;8.116;2023-04-24T01:46:41;11.80;93.20
24164;DHT22;12319;49.204;8.116;2023-04-24T01:49:06;11.70;93.70
24164;DHT22;12319;49.204;8.116;2023-04-24T01:51:32;11.70;93.50
24164;DHT22;12319;49.204;8.116;2023-04-24T01:53:58;11.70;93.60
24164;DHT22;12319;49.204;8.116;2023-04-24T01:56:24;11.80;93.80
24164;DHT22;12319;49.204;8.116;2023-04-24T01:58:52;11.80;93.80
24164;DHT22;12319;49.204;8.116;2023-04-24T02:01:23;11.80;94.00
24164;DHT22;12319;49.204;8.116;2023-04-24T02:03:49;11.80;93.90
24164;DHT22;12319;49.204;8.116;2023-04-24T02:06:15;11.80;94.10
24164;DHT22;12319;49.204;8.116;2023-04-24T02:08:41;11.80;93.90
24164;DHT22;12319;49.204;8.116;2023-04-24T02:11:08;11.80;94.00
24164;DHT22;12319;49.204;8.116;2023-04-24T02:13:33;11.80;94.70
24164;DHT22;12319;49.204;8.116;2023-04-24T02:15:59;11.80;94.50
24164;DHT22;12319;49.204;8.116;2023-04-24T02:18:24;11.80;94.30
24164;DHT22;12319;49.204;8.116;2023-04-24T02:20:50;11.80;94.50
24164;DHT22;12319;49.204;8.116;2023-04-24T02:23:16;11.80;94.30
24164;DHT22;12319;49.204;8.116;2023-04-24T02:25:41;11.80;94.60
24164;DHT22;12319;49.204;8.116;2023-04-24T02:28:07;11.90;94.90
24164;DHT22;12319;49.204;8.116;2023-04-24T02:30:32;11.80;95.30
24164;DHT22;12319;49.204;8.116;2023-04-24T02:32:58;11.90;94.70
24164;DHT22;12319;49.204;8.116;2023-04-24T02:35:23;11.90;95.00
24164;DHT22;12319;49.204;8.116;2023-04-24T02:37:49;11.90;95.10
24164;DHT22;12319;49.204;8.116;2023-04-24T02:40:14;12.00;94.90
24164;DHT22;12319;49.204;8.116;2023-04-24T02:42:40;11.90;94.50
24164;DHT22;12319;49.204;8.116;2023-04-24T02:45:06;11.90;94.40
24164;DHT22;12319;49.204;8.116;2023-04-24T02:47:32;11.90;93.80
24164;DHT22;12319;49.204;8.116;2023-04-24T02:49:57;11.80;93.50
24164;DHT22;12319;49.204;8.116;2023-04-24T02:52:23;11.80;93.60
24164;DHT22;12319;49.204;8.116;2023-04-24T02:54:48;11.70;93.80
24164;DHT22;12319;49.204;8.116;2023-04-24T02:57:14;11.70;93.50
24164;DHT22;12319;49.204;8.116;2023-04-24T02:59:40;11.70;93.50
24164;DHT22;12319;49.204;8.116;2023-04-24T03:02:06;11.70;93.60
24164;DHT22;12319;49.204;8.116;2023-04-24T03:04:31;11.70;93.60
24164;DHT22;12319;49.204;8.116;2023-04-24T03:06:57;11.60;93.40
24164;DHT22;12319;49.204;8.116;2023-04-24T03:09:23;11.60;93.30
24164;DHT22;12319;49.204;8.116;2023-04-24T03:11:49;11.60;93.30
24164;DHT22;12319;49.204;8.116;2023-04-24T03:14:15;11.60;93.50
24164;DHT22;12319;49.204;8.116;2023-04-24T03:16:40;11.60;93.30
24164;DHT22;12319;49.204;8.116;2023-04-24T03:19:06;11.50;93.20
24164;DHT22;12319;49.204;8.116;2023-04-24T03:21:32;11.50;93.30
24164;DHT22;12319;49.204;8.116;2023-04-24T03:23:58;11.50;93.00
24164;DHT22;12319;49.204;8.116;2023-04-24T03:26:23;11.50;93.20
24164;DHT22;12319;49.204;8.116;2023-04-24T03:28:50;11.40;93.10
24164;DHT22;12319;49.204;8.116;2023-04-24T03:31:15;11.40;93.20
24164;DHT22;12319;49.204;8.116;2023-04-24T03:33:42;11.40;93.00
24164;DHT22;12319;49.204;8.116;2023-04-24T03:36:07;11.30;92.90
24164;DHT22;12319;49.204;8.116;2023-04-24T03:38:33;11.20;92.90
24164;DHT22;12319;49.204;8.116;2023-04-24T03:40:58;11.20;92.80
24164;DHT22;12319;49.204;8.116;2023-04-24T03:43:24;11.10;92.70
24164;DHT22;12319;49.204;8.116;2023-04-24T03:45:49;11.00;92.80
24164;DHT22;12319;49.204;8.116;2023-04-24T03:48:15;10.90;92.90
24164;DHT22;12319;49.204;8.116;2023-04-24T03:50:40;11.00;92.80
24164;DHT22;12319;49.204;8.116;2023-04-24T03:53:06;10.80;92.80
24164;DHT22;12319;49.204;8.116;2023-04-24T03:55:31;10.80;93.20
24164;DHT22;12319;49.204;8.116;2023-04-24T03:57:57;10.70;93.00
24164;DHT22;12319;49.204;8.116;2023-04-24T04:00:22;10.60;93.00
24164;DHT22;12319;49.204;8.116;2023-04-24T04:02:48;10.60;93.10
24164;DHT22;12319;49.204;8.116;2023-04-24T04:05:14;10.60;93.00
24164;DHT22;12319;49.204;8.116;2023-04-24T04:07:39;10.50;92.90
24164;DHT22;12319;49.204;8.116;2023-04-24T04:10:05;10.50;92.80
24164;DHT22;12319;49.204;8.116;2023-04-24T04:12:32;10.50;92.80
24164;DHT22;12319;49.204;8.116;2023-04-24T04:14:57;10.40;92.70
24164;DHT22;12319;49.204;8.116;2023-04-24T04:17:23;10.40;92.80
24164;DHT22;12319;49.204;8.116;2023-04-24T04:19:48;10.40;92.60
24164;DHT22;12319;49.204;8.116;2023-04-24T04:22:14;10.40;92.70
24164;DHT22;12319;49.204;8.116;2023-04-24T04:24:40;10.40;92.50
24164;DHT22;12319;49.204;8.116;2023-04-24T04:27:06;10.40;92.60
24164;DHT22;12319;49.204;8.116;2023-04-24T04:29:32;10.30;92.60
24164;DHT22;12319;49.204;8.116;2023-04-24T04:31:58;10.30;92.60
24164;DHT22;12319;49.204;8.116;2023-04-24T04:34:24;10.40;92.50
24164;DHT22;12319;49.204;8.116;2023-04-24T04:36:49;10.40;92.40
24164;DHT22;12319;49.204;8.116;2023-04-24T04:39:15;10.40;92.40
24164;DHT22;12319;49.204;8.116;2023-04-24T04:41:41;10.40;92.20
24164;DHT22;12319;49.204;8.116;2023-04-24T04:44:07;10.50;92.20
24164;DHT22;12319;49.204;8.116;2023-04-24T04:46:34;10.50;92.30
24164;DHT22;12319;49.204;8.116;2023-04-24T04:49:01;10.60;92.30
24164;DHT22;12319;49.204;8.116;2023-04-24T04:51:27;10.60;92.10
24164;DHT22;12319;49.204;8.116;2023-04-24T04:53:53;10.70;91.90
24164;DHT22;12319;49.204;8.116;2023-04-24T04:56:18;10.70;92.10
24164;DHT22;12319;49.204;8.116;2023-04-24T04:58:44;10.80;92.10
24164;DHT22;12319;49.204;8.116;2023-04-24T05:01:10;10.90;92.20
24164;DHT22;12319;49.204;8.116;2023-04-24T05:03:35;11.00;92.10
24164;DHT22;12319;49.204;8.116;2023-04-24T05:06:02;11.00;92.20
24164;DHT22;12319;49.204;8.116;2023-04-24T05:08:27;11.00;92.10
24164;DHT22;12319;49.204;8.116;2023-04-24T05:10:54;11.10;92.10
24164;DHT22;12319;49.204;8.116;2023-04-24T05:13:20;11.10;92.10
24164;DHT22;12319;49.204;8.116;2023-04-24T05:15:45;11.20;92.20
24164;DHT22;12319;49.204;8.116;2023-04-24T05:18:11;11.20;92.10
24164;DHT22;12319;49.204;8.116;2023-04-24T05:20:36;11.30;92.10
24164;DHT22;12319;49.204;8.116;2023-04-24T05:23:02;11.40;92.10
24164;DHT22;12319;49.204;8.116;2023-04-24T05:25:27;11.60;92.10
24164;DHT22;12319;49.204;8.116;2023-04-24T05:27:53;11.70;92.10
24164;DHT22;12319;49.204;8.116;2023-04-24T05:30:19;11.80;92.00
24164;DHT22;12319;49.204;8.116;2023-04-24T05:32:45;11.80;91.80
24164;DHT22;12319;49.204;8.116;2023-04-24T05:35:11;11.80;91.80
24164;DHT22;12319;49.204;8.116;2023-04-24T05:37:36;11.80;91.80
24164;DHT22;12319;49.204;8.116;2023-04-24T05:40:02;11.80;91.50
24164;DHT22;12319;49.204;8.116;2023-04-24T05:42:30;11.70;91.60
24164;DHT22;12319;49.204;8.116;2023-04-24T05:44:56;11.60;91.50
24164;DHT22;12319;49.204;8.116;2023-04-24T05:47:21;11.70;91.60
24164;DHT22;12319;49.204;8.116;2023-04-24T05:49:47;11.70;91.60
24164;DHT22;12319;49.204;8.116;2023-04-24T05:52:13;11.70;91.50
24164;DHT22;12319;49.204;8.116;2023-04-24T05:54:38;11.70;91.60
24164;DHT22;12319;49.204;8.116;2023-04-24T05:57:04;11.70;91.70
24164;DHT22;12319;49.204;8.116;2023-04-24T05:59:33;11.70;91.70
24164;DHT22;12319;49.204;8.116;2023-04-24T06:01:59;11.70;91.70
24164;DHT22;12319;49.204;8.116;2023-04-24T06:04:25;11.80;91.90
24164;DHT22;12319;49.204;8.116;2023-04-24T06:06:50;11.90;91.80
24164;DHT22;12319;49.204;8.116;2023-04-24T06:09:21;11.90;91.80
24164;DHT22;12319;49.204;8.116;2023-04-24T06:11:47;12.00;91.70
24164;DHT22;12319;49.204;8.116;2023-04-24T06:14:12;12.00;91.80
24164;DHT22;12319;49.204;8.116;2023-04-24T06:16:39;12.10;91.70
24164;DHT22;12319;49.204;8.116;2023-04-24T06:19:05;12.30;91.40
24164;DHT22;12319;49.204;8.116;2023-04-24T06:21:30;12.90;91.10
24164;DHT22;12319;49.204;8.116;2023-04-24T06:23:56;12.50;90.60
24164;DHT22;12319;49.204;8.116;2023-04-24T06:26:23;12.60;90.30
24164;DHT22;12319;49.204;8.116;2023-04-24T06:28:50;12.60;90.10
24164;DHT22;12319;49.204;8.116;2023-04-24T06:31:16;12.50;89.70
24164;DHT22;12319;49.204;8.116;2023-04-24T06:33:42;12.50;90.00
24164;DHT22;12319;49.204;8.116;2023-04-24T06:36:08;12.40;90.00
24164;DHT22;12319;49.204;8.116;2023-04-24T06:38:34;12.30;90.40
24164;DHT22;12319;49.204;8.116;2023-04-24T06:40:59;12.20;90.40
24164;DHT22;12319;49.204;8.116;2023-04-24T06:43:25;12.10;90.10
24164;DHT22;12319;49.204;8.116;2023-04-24T06:45:51;11.90;89.40
24164;DHT22;12319;49.204;8.116;2023-04-24T06:48:16;11.80;89.80
24164;DHT22;12319;49.204;8.116;2023-04-24T06:50:42;11.70;89.90
24164;DHT22;12319;49.204;8.116;2023-04-24T06:53:07;11.50;89.90
24164;DHT22;12319;49.204;8.116;2023-04-24T06:55:33;11.50;90.20
24164;DHT22;12319;49.204;8.116;2023-04-24T06:58:00;11.60;90.40
24164;DHT22;12319;49.204;8.116;2023-04-24T07:00:26;11.60;90.30
24164;DHT22;12319;49.204;8.116;2023-04-24T07:02:51;11.60;90.30
24164;DHT22;12319;49.204;8.116;2023-04-24T07:05:17;11.60;90.50
24164;DHT22;12319;49.204;8.116;2023-04-24T07:07:46;11.70;90.40
24164;DHT22;12319;49.204;8.116;2023-04-24T07:10:12;11.70;90.50
24164;DHT22;12319;49.204;8.116;2023-04-24T07:12:38;11.70;90.40
24164;DHT22;12319;49.204;8.116;2023-04-24T07:15:05;11.80;90.60
24164;DHT22;12319;49.204;8.116;2023-04-24T07:17:30;12.00;90.80
24164;DHT22;12319;49.204;8.116;2023-04-24T07:19:56;13.90;91.70
24164;DHT22;12319;49.204;8.116;2023-04-24T07:22:21;15.50;90.30
24164;DHT22;12319;49.204;8.116;2023-04-24T07:24:48;16.00;86.30
24164;DHT22;12319;49.204;8.116;2023-04-24T07:27:13;15.90;85.50
24164;DHT22;12319;49.204;8.116;2023-04-24T07:29:40;15.90;85.40
24164;DHT22;12319;49.204;8.116;2023-04-24T07:32:06;16.60;85.10
24164;DHT22;12319;49.204;8.116;2023-04-24T07:34:31;18.40;85.60
24164;DHT22;12319;49.204;8.116;2023-04-24T07:36:57;20.60;81.90
24164;DHT22;12319;49.204;8.116;2023-04-24T07:39:23;22.90;77.40
24164;DHT22;12319;49.204;8.116;2023-04-24T07:41:49;24.90;75.00
24164;DHT22;12319;49.204;8.116;2023-04-24T07:44:14;25.00;68.50
24164;DHT22;12319;49.204;8.116;2023-04-24T07:46:40;24.30;66.40
24164;DHT22;12319;49.204;8.116;2023-04-24T07:49:06;22.90;63.70
24164;DHT22;12319;49.204;8.116;2023-04-24T07:51:31;21.30;63.30
24164;DHT22;12319;49.204;8.116;2023-04-24T07:53:59;19.80;63.90
24164;DHT22;12319;49.204;8.116;2023-04-24T07:56:25;18.70;65.40
24164;DHT22;12319;49.204;8.116;2023-04-24T07:58:51;17.80;66.90
24164;DHT22;12319;49.204;8.116;2023-04-24T08:01:16;16.90;67.90
24164;DHT22;12319;49.204;8.116;2023-04-24T08:03:42;16.30;69.70
24164;DHT22;12319;49.204;8.116;2023-04-24T08:06:07;16.10;70.80
24164;DHT22;12319;49.204;8.116;2023-04-24T08:08:33;15.90;71.00
24164;DHT22;12319;49.204;8.116;2023-04-24T08:10:59;15.60;71.40
24164;DHT22;12319;49.204;8.116;2023-04-24T08:13:24;15.60;71.90
24164;DHT22;12319;49.204;8.116;2023-04-24T08:15:50;15.50;71.60
24164;DHT22;12319;49.204;8.116;2023-04-24T08:18:15;16.00;73.20
24164;DHT22;12319;49.204;8.116;2023-04-24T08:20:41;17.00;72.10
24164;DHT22;12319;49.204;8.116;2023-04-24T08:23:07;19.00;72.30
24164;DHT22;12319;49.204;8.116;2023-04-24T08:25:33;20.30;69.70
24164;DHT22;12319;49.204;8.116;2023-04-24T08:28:01;21.50;69.30
24164;DHT22;12319;49.204;8.116;2023-04-24T08:30:27;23.20;65.10
24164;DHT22;12319;49.204;8.116;2023-04-24T08:32:53;24.90;61.70
24164;DHT22;12319;49.204;8.116;2023-04-24T08:35:18;26.20;59.90
24164;DHT22;12319;49.204;8.116;2023-04-24T08:37:44;26.70;58.60
24164;DHT22;12319;49.204;8.116;2023-04-24T08:40:15;26.90;56.20
24164;DHT22;12319;49.204;8.116;2023-04-24T08:42:42;26.40;54.00
24164;DHT22;12319;49.204;8.116;2023-04-24T08:45:09;25.10;53.90
24164;DHT22;12319;49.204;8.116;2023-04-24T08:47:35;23.60;53.00
24164;DHT22;12319;49.204;8.116;2023-04-24T08:50:03;21.90;54.40
24164;DHT22;12319;49.204;8.116;2023-04-24T08:52:32;20.50;55.70
24164;DHT22;12319;49.204;8.116;2023-04-24T08:54:59;19.20;56.60
24164;DHT22;12319;49.204;8.116;2023-04-24T08:57:25;18.30;58.00
24164;DHT22;12319;49.204;8.116;2023-04-24T08:59:53;17.50;58.80
24164;DHT22;12319;49.204;8.116;2023-04-24T09:02:18;16.80;59.70
24164;DHT22;12319;49.204;8.116;2023-04-24T09:04:45;16.30;60.40
24164;DHT22;12319;49.204;8.116;2023-04-24T09:07:12;15.70;61.20
24164;DHT22;12319;49.204;8.116;2023-04-24T09:09:40;15.20;61.90
24164;DHT22;12319;49.204;8.116;2023-04-24T09:12:07;14.90;62.80
24164;DHT22;12319;49.204;8.116;2023-04-24T09:14:34;14.70;62.90
24164;DHT22;12319;49.204;8.116;2023-04-24T09:17:02;14.60;62.80
24164;DHT22;12319;49.204;8.116;2023-04-24T09:19:27;14.70;63.40
24164;DHT22;12319;49.204;8.116;2023-04-24T09:21:53;15.00;63.80
24164;DHT22;12319;49.204;8.116;2023-04-24T09:24:21;15.30;63.50
24164;DHT22;12319;49.204;8.116;2023-04-24T09:26:56;15.50;63.10
24164;DHT22;12319;49.204;8.116;2023-04-24T09:29:23;15.80;63.20
24164;DHT22;12319;49.204;8.116;2023-04-24T09:31:49;16.00;63.80
24164;DHT22;12319;49.204;8.116;2023-04-24T09:34:21;16.30;63.70
24164;DHT22;12319;49.204;8.116;2023-04-24T09:36:47;16.70;63.90
24164;DHT22;12319;49.204;8.116;2023-04-24T09:39:15;17.00;62.40
24164;DHT22;12319;49.204;8.116;2023-04-24T09:41:48;17.10;61.90
24164;DHT22;12319;49.204;8.116;2023-04-24T09:44:19;16.80;60.30
24164;DHT22;12319;49.204;8.116;2023-04-24T09:46:53;16.70;61.10
24164;DHT22;12319;49.204;8.116;2023-04-24T09:49:29;16.50;61.70
24164;DHT22;12319;49.204;8.116;2023-04-24T09:52:07;16.00;62.10
24164;DHT22;12319;49.204;8.116;2023-04-24T09:54:33;15.70;63.10
24164;DHT22;12319;49.204;8.116;2023-04-24T09:56:59;15.50;63.70
24164;DHT22;12319;49.204;8.116;2023-04-24T09:59:28;15.20;64.90
24164;DHT22;12319;49.204;8.116;2023-04-24T10:01:54;15.10;65.90
24164;DHT22;12319;49.204;8.116;2023-04-24T10:04:26;14.80;66.20
24164;DHT22;12319;49.204;8.116;2023-04-24T10:06:54;14.60;66.90
24164;DHT22;12319;49.204;8.116;2023-04-24T10:09:25;14.40;67.50
24164;DHT22;12319;49.204;8.116;2023-04-24T10:11:52;14.10;67.30
24164;DHT22;12319;49.204;8.116;2023-04-24T10:14:20;14.20;68.20
24164;DHT22;12319;49.204;8.116;2023-04-24T10:16:47;14.20;68.00
24164;DHT22;12319;49.204;8.116;2023-04-24T10:19:17;14.30;68.20
24164;DHT22;12319;49.204;8.116;2023-04-24T10:21:45;14.30;68.20
24164;DHT22;12319;49.204;8.116;2023-04-24T10:24:16;14.50;67.90
24164;DHT22;12319;49.204;8.116;2023-04-24T10:26:43;14.50;68.30
24164;DHT22;12319;49.204;8.116;2023-04-24T10:29:10;14.70;68.40
24164;DHT22;12319;49.204;8.116;2023-04-24T10:31:38;14.70;68.50
24164;DHT22;12319;49.204;8.116;2023-04-24T10:34:08;14.80;68.00
24164;DHT22;12319;49.204;8.116;2023-04-24T10:36:34;14.80;68.00
24164;DHT22;12319;49.204;8.116;2023-04-24T10:39:02;14.60;67.70
24164;DHT22;12319;49.204;8.116;2023-04-24T10:41:30;14.70;67.90
24164;DHT22;12319;49.204;8.116;2023-04-24T10:46:30;14.50;68.90
24164;DHT22;12319;49.204;8.116;2023-04-24T10:48:56;14.40;68.70
24164;DHT22;12319;49.204;8.116;2023-04-24T10:54:44;14.20;67.90
24164;DHT22;12319;49.204;8.116;2023-04-24T10:59:46;14.00;69.10
24164;DHT22;12319;49.204;8.116;2023-04-24T11:02:15;14.00;68.70
24164;DHT22;12319;49.204;8.116;2023-04-24T11:04:44;14.00;69.30
24164;DHT22;12319;49.204;8.116;2023-04-24T11:07:10;14.20;69.50
24164;DHT22;12319;49.204;8.116;2023-04-24T11:09:36;14.40;69.90
24164;DHT22;12319;49.204;8.116;2023-04-24T11:12:07;14.70;69.30
24164;DHT22;12319;49.204;8.116;2023-04-24T11:20:06;15.20;68.30
24164;DHT22;12319;49.204;8.116;2023-04-24T11:22:34;15.40;67.60
24164;DHT22;12319;49.204;8.116;2023-04-24T11:25:03;15.50;67.00
24164;DHT22;12319;49.204;8.116;2023-04-24T11:27:31;15.60;67.40
24164;DHT22;12319;49.204;8.116;2023-04-24T11:29:59;15.60;66.40
24164;DHT22;12319;49.204;8.116;2023-04-24T11:35:03;15.70;66.80
24164;DHT22;12319;49.204;8.116;2023-04-24T11:37:39;15.90;66.50
24164;DHT22;12319;49.204;8.116;2023-04-24T11:40:07;16.00;66.30
24164;DHT22;12319;49.204;8.116;2023-04-24T11:42:37;16.20;66.50
24164;DHT22;12319;49.204;8.116;2023-04-24T11:45:12;16.40;66.60
24164;DHT22;12319;49.204;8.116;2023-04-24T11:47:38;16.70;64.80
24164;DHT22;12319;49.204;8.116;2023-04-24T11:50:05;16.80;64.90
24164;DHT22;12319;49.204;8.116;2023-04-24T11:52:31;16.80;64.90
24164;DHT22;12319;49.204;8.116;2023-04-24T11:54:57;16.80;64.90
24164;DHT22;12319;49.204;8.116;2023-04-24T11:57:25;16.60;63.90
24164;DHT22;12319;49.204;8.116;2023-04-24T11:59:53;16.30;63.80
24164;DHT22;12319;49.204;8.116;2023-04-24T12:02:26;16.00;64.10
24164;DHT22;12319;49.204;8.116;2023-04-24T12:04:53;15.60;64.20
24164;DHT22;12319;49.204;8.116;2023-04-24T12:07:19;15.40;64.90
24164;DHT22;12319;49.204;8.116;2023-04-24T12:10:04;15.40;65.60
24164;DHT22;12319;49.204;8.116;2023-04-24T12:12:31;15.50;65.60
24164;DHT22;12319;49.204;8.116;2023-04-24T12:14:57;15.60;65.20
24164;DHT22;12319;49.204;8.116;2023-04-24T12:17:29;15.60;64.50
24164;DHT22;12319;49.204;8.116;2023-04-24T12:19:59;15.60;64.60
24164;DHT22;12319;49.204;8.116;2023-04-24T12:22:25;15.70;64.80
24164;DHT22;12319;49.204;8.116;2023-04-24T12:25:02;15.80;64.50
24164;DHT22;12319;49.204;8.116;2023-04-24T12:27:32;15.90;63.80
24164;DHT22;12319;49.204;8.116;2023-04-24T12:30:04;15.90;64.50
24164;DHT22;12319;49.204;8.116;2023-04-24T12:32:30;16.00;64.10
24164;DHT22;12319;49.204;8.116;2023-04-24T12:34:56;16.10;64.20
24164;DHT22;12319;49.204;8.116;2023-04-24T12:37:26;16.00;63.50
24164;DHT22;12319;49.204;8.116;2023-04-24T12:40:07;16.10;64.10
24164;DHT22;12319;49.204;8.116;2023-04-24T12:42:33;16.20;64.10
24164;DHT22;12319;49.204;8.116;2023-04-24T12:45:04;16.40;64.50
24164;DHT22;12319;49.204;8.116;2023-04-24T12:47:31;16.70;64.20
24164;DHT22;12319;49.204;8.116;2023-04-24T12:49:57;17.20;63.20
24164;DHT22;12319;49.204;8.116;2023-04-24T12:52:23;17.40;63.40
24164;DHT22;12319;49.204;8.116;2023-04-24T12:54:50;17.40;63.00
24164;DHT22;12319;49.204;8.116;2023-04-24T12:57:16;17.50;62.50
24164;DHT22;12319;49.204;8.116;2023-04-24T12:59:42;17.80;62.50
24164;DHT22;12319;49.204;8.116;2023-04-24T13:02:08;18.10;61.90
24164;DHT22;12319;49.204;8.116;2023-04-24T13:04:35;18.10;59.60
24164;DHT22;12319;49.204;8.116;2023-04-24T13:07:00;17.90;60.40
24164;DHT22;12319;49.204;8.116;2023-04-24T13:09:26;17.80;61.10
24164;DHT22;12319;49.204;8.116;2023-04-24T13:11:51;17.70;60.10
24164;DHT22;12319;49.204;8.116;2023-04-24T13:14:17;17.60;60.40
24164;DHT22;12319;49.204;8.116;2023-04-24T13:16:43;17.80;60.40
24164;DHT22;12319;49.204;8.116;2023-04-24T13:19:08;17.90;60.10
24164;DHT22;12319;49.204;8.116;2023-04-24T13:21:34;17.80;60.00
24164;DHT22;12319;49.204;8.116;2023-04-24T13:23:59;17.70;58.70
24164;DHT22;12319;49.204;8.116;2023-04-24T13:26:25;17.50;59.70
24164;DHT22;12319;49.204;8.116;2023-04-24T13:28:50;17.30;59.80
24164;DHT22;12319;49.204;8.116;2023-04-24T13:31:16;17.10;60.30
24164;DHT22;12319;49.204;8.116;2023-04-24T13:33:42;16.90;60.60
24164;DHT22;12319;49.204;8.116;2023-04-24T13:36:08;16.80;61.10
24164;DHT22;12319;49.204;8.116;2023-04-24T13:38:34;16.60;61.90
24164;DHT22;12319;49.204;8.116;2023-04-24T13:40:59;16.60;62.30
24164;DHT22;12319;49.204;8.116;2023-04-24T13:43:25;16.70;62.40
24164;DHT22;12319;49.204;8.116;2023-04-24T13:45:51;16.90;62.60
24164;DHT22;12319;49.204;8.116;2023-04-24T13:48:16;17.60;62.10
24164;DHT22;12319;49.204;8.116;2023-04-24T13:50:43;18.20;61.50
24164;DHT22;12319;49.204;8.116;2023-04-24T13:53:09;18.60;60.00
24164;DHT22;12319;49.204;8.116;2023-04-24T13:55:35;18.60;59.10
24164;DHT22;12319;49.204;8.116;2023-04-24T13:58:02;18.30;59.30
24164;DHT22;12319;49.204;8.116;2023-04-24T14:00:28;17.90;58.80
24164;DHT22;12319;49.204;8.116;2023-04-24T14:02:53;17.50;58.80
24164;DHT22;12319;49.204;8.116;2023-04-24T14:05:19;17.20;59.50
24164;DHT22;12319;49.204;8.116;2023-04-24T14:07:46;16.90;59.50
24164;DHT22;12319;49.204;8.116;2023-04-24T14:10:11;16.70;60.00
24164;DHT22;12319;49.204;8.116;2023-04-24T14:12:37;16.50;60.50
24164;DHT22;12319;49.204;8.116;2023-04-24T14:15:03;16.50;60.80
24164;DHT22;12319;49.204;8.116;2023-04-24T14:17:30;16.30;60.90
24164;DHT22;12319;49.204;8.116;2023-04-24T14:19:56;16.20;60.70
24164;DHT22;12319;49.204;8.116;2023-04-24T14:22:22;16.10;60.10
24164;DHT22;12319;49.204;8.116;2023-04-24T14:24:47;15.90;60.80
24164;DHT22;12319;49.204;8.116;2023-04-24T14:27:13;15.80;61.10
24164;DHT22;12319;49.204;8.116;2023-04-24T14:29:39;15.80;61.00
24164;DHT22;12319;49.204;8.116;2023-04-24T14:32:04;15.70;61.10
24164;DHT22;12319;49.204;8.116;2023-04-24T14:34:30;15.50;61.60
24164;DHT22;12319;49.204;8.116;2023-04-24T14:36:56;15.50;62.00
24164;DHT22;12319;49.204;8.116;2023-04-24T14:39:21;15.30;62.80
24164;DHT22;12319;49.204;8.116;2023-04-24T14:41:47;15.20;63.40
24164;DHT22;12319;49.204;8.116;2023-04-24T14:44:13;15.10;63.60
24164;DHT22;12319;49.204;8.116;2023-04-24T14:46:38;15.10;64.00
24164;DHT22;12319;49.204;8.116;2023-04-24T14:49:04;15.20;64.20
24164;DHT22;12319;49.204;8.116;2023-04-24T14:51:30;15.30;64.50
24164;DHT22;12319;49.204;8.116;2023-04-24T14:53:56;15.30;64.60
24164;DHT22;12319;49.204;8.116;2023-04-24T14:56:22;15.40;64.60
24164;DHT22;12319;49.204;8.116;2023-04-24T14:58:48;15.30;65.00
24164;DHT22;12319;49.204;8.116;2023-04-24T15:01:14;15.30;65.40
24164;DHT22;12319;49.204;8.116;2023-04-24T15:03:39;15.30;66.20
24164;DHT22;12319;49.204;8.116;2023-04-24T15:06:05;15.20;65.60
24164;DHT22;12319;49.204;8.116;2023-04-24T15:08:31;15.20;65.90
24164;DHT22;12319;49.204;8.116;2023-04-24T15:10:56;15.10;66.00
24164;DHT22;12319;49.204;8.116;2023-04-24T15:13:22;15.00;66.30
24164;DHT22;12319;49.204;8.116;2023-04-24T15:15:48;14.80;68.00
24164;DHT22;12319;49.204;8.116;2023-04-24T15:18:14;14.60;69.00
24164;DHT22;12319;49.204;8.116;2023-04-24T15:20:39;14.40;69.60
24164;DHT22;12319;49.204;8.116;2023-04-24T15:23:08;14.30;70.40
24164;DHT22;12319;49.204;8.116;2023-04-24T15:25:33;14.20;71.10
24164;DHT22;12319;49.204;8.116;2023-04-24T15:27:59;14.30;70.80
24164;DHT22;12319;49.204;8.116;2023-04-24T15:30:26;14.30;71.80
24164;DHT22;12319;49.204;8.116;2023-04-24T15:32:51;14.50;71.60
24164;DHT22;12319;49.204;8.116;2023-04-24T15:35:17;14.70;71.30
24164;DHT22;12319;49.204;8.116;2023-04-24T15:37:43;14.80;71.10
24164;DHT22;12319;49.204;8.116;2023-04-24T15:40:09;14.90;70.90
24164;DHT22;12319;49.204;8.116;2023-04-24T15:42:36;15.00;70.90